Bookmark and Share
Track history (hours):
 

Uni Wealth

Last reported at 2014-Apr-08 09:27 UTC. Time now 2014-Apr-19 19:36 UTC.
Position N 50°15' W 001°17'.
Warning: this ship's position is 11 days out of date.

Length 170 m; draft 8.9 m.

Type: Cargo ship. MMSI: 477621200.

NotesDate/timePositionNaut miles runAvg speedWind from/ knotsBaromVisibWave heightAir tempDewpointWater temp
2014-Apr-08 09:27N 50°15' W 001°17'1213.1
2014-Apr-08 08:33N 50°18' W 000°60'4312.4
2014-Apr-08 05:04N 50°30' E 000°06'811.1
2014-Apr-08 04:19N 50°32' E 000°18'810.8
2014-Apr-08 03:33N 50°35' E 000°31'1010.6
2014-Apr-08 02:33N 50°39' E 000°46'1111.1
2014-Apr-08 01:33N 50°46' E 001°00'1212.1
2014-Apr-08 00:32N 50°53' E 001°15'1313.1
2014-Apr-07 23:34N 51°03' E 001°29'1312.7
2014-Apr-07 22:34N 51°12' E 001°43'1212.0
2014-Apr-07 21:33N 51°22' E 001°54'1212.0
2014-Apr-07 20:34N 51°31' E 002°06'1211.5
2014-Apr-07 19:31N 51°40' E 002°19'27012.3
2014-Apr-06 21:33N 55°34' E 006°05'1312.8
2014-Apr-06 20:33N 55°44' E 006°19'12712.7
2014-Apr-06 10:33N 57°25' E 008°37'5911.9
2014-Apr-06 05:33N 57°49' E 010°19'1313.1
2014-Apr-06 04:33N 57°48' E 010°44'1413.9
2014-Apr-06 03:33N 57°39' E 011°04'1514.7
2014-Apr-06 02:34N 57°29' E 011°24'1414.0
2014-Apr-06 01:33N 57°16' E 011°35'1413.9
2014-Apr-06 00:33N 57°03' E 011°44'1313.5
2014-Apr-05 23:33N 56°51' E 011°52'13811.3
2014-Apr-05 11:22N 54°36' E 010°60'1214.2
2014-Apr-05 10:34N 54°34' E 011°19'1313.4
2014-Apr-05 09:33N 54°28' E 011°40'1312.9
2014-Apr-05 08:33N 54°26' E 012°02'1111.1
2014-Apr-05 07:34N 54°34' E 012°15'1312.8
2014-Apr-05 06:33N 54°43' E 012°30'1313.2
2014-Apr-05 05:32N 54°49' E 012°51'1413.5
2014-Apr-05 04:32N 54°54' E 013°14'1313.4
2014-Apr-05 03:33N 54°58' E 013°35'1313.2
2014-Apr-05 02:33N 55°02' E 013°57'1312.9
2014-Apr-05 01:33N 55°11' E 014°14'1313.3
2014-Apr-05 00:33N 55°21' E 014°28'1313.3
2014-Apr-04 23:33N 55°29' E 014°47'1413.7
2014-Apr-04 22:33N 55°34' E 015°10'5813.6
2014-Apr-04 18:17N 55°50' E 016°49'1013.7
2014-Apr-04 17:33N 55°53' E 017°06'1413.8
2014-Apr-04 16:33N 55°57' E 017°30'1513.7
2014-Apr-04 15:29N 56°03' E 017°53'27013.4
2014-Apr-03 19:19N 59°35' E 023°08'1113.6
2014-Apr-03 18:31N 59°38' E 023°29'1413.7
2014-Apr-03 17:30N 59°41' E 023°56'1413.8
2014-Apr-03 16:29N 59°45' E 024°22'1112.0
2014-Apr-03 15:33N 59°40' E 024°42'10 0.5
2014-Apr-02 19:33N 59°32' E 024°56'4 4.2
2014-Apr-02 18:33N 59°35' E 024°50'0 0.0
2014-Apr-02 17:33N 59°35' E 024°50'0 0.0
2014-Apr-02 16:24N 59°35' E 024°50'0 0.0
2014-Apr-02 15:33N 59°35' E 024°50'0 0.0
2014-Apr-02 14:33N 59°35' E 024°50'0 0.0
2014-Apr-02 13:30N 59°35' E 024°50'0 0.0
2014-Apr-02 12:30N 59°35' E 024°50'0 0.0
2014-Apr-02 11:33N 59°35' E 024°50'0 0.1
2014-Apr-02 10:34N 59°35' E 024°50'5 5.5
2014-Apr-02 09:33N 59°40' E 024°44'1111.3
2014-Apr-02 08:33N 59°42' E 024°22'1513.9
2014-Apr-02 07:30N 59°38' E 023°55'1313.9
2014-Apr-02 06:33N 59°34' E 023°30'35412.6
2014-Apr-01 02:26N 55°32' E 015°28'1213.1
2014-Apr-01 01:33N 55°29' E 015°08'1313.1
2014-Apr-01 00:33N 55°26' E 014°46'1312.8
2014-Mar-31 23:34N 55°18' E 014°29'1313.3
2014-Mar-31 22:33N 55°07' E 014°15'1312.7
2014-Mar-31 21:33N 54°59' E 013°58'1313.2
2014-Mar-31 20:33N 54°55' E 013°37'1313.1
2014-Mar-31 19:33N 54°51' E 013°15'1313.3
2014-Mar-31 18:33N 54°47' E 012°53'1313.3
2014-Mar-31 17:33N 54°41' E 012°32'1313.1
2014-Mar-31 16:33N 54°32' E 012°15'1111.1
2014-Mar-31 15:33N 54°24' E 012°02'1313.1
2014-Mar-31 14:33N 54°27' E 011°40'1313.2
2014-Mar-31 13:33N 54°32' E 011°19'1312.3
2014-Mar-31 12:31N 54°38' E 011°00'10 9.4
2014-Mar-31 11:26N 54°47' E 010°51'3210.9
2014-Mar-31 08:31N 55°18' E 011°02'5611.0
2014-Mar-31 03:27N 56°14' E 011°05'3411.0
2014-Mar-31 00:22N 56°41' E 011°42'911.0
2014-Mar-30 23:33N 56°49' E 011°49'1313.1
2014-Mar-30 22:33N 57°01' E 011°40'1312.8
2014-Mar-30 21:33N 57°14' E 011°33'1312.8
2014-Mar-30 20:33N 57°26' E 011°25'1211.8
2014-Mar-30 19:33N 57°34' E 011°09'1313.2
2014-Mar-30 18:33N 57°43' E 010°52'1212.3
2014-Mar-30 17:33N 57°53' E 010°39'  

Dump ship's entire track history

sailing weather and tide predictions

Uni Wealth — VRFV4 — position and weather